Airfield :
LOGIN :

Register | Disclaimer

   EN    FR    IT 

 










Legend :    VFR   Marginal VFR   IFR   Intensive IFR   Very Intensive IFR
Visi :
Ceiling :
>= 8 km
>= 3000ft
5 to 8 km
1000 to 3000 ft
1500m to 5 km
500 to 1000 ft
800 to 1500m
200 to 500 ft
< 800m
< 200 ft
Symbols :   Thunderstorms  Fog  Heavy snow  Heavy precipitations  Wind > 20 kt
SIGMETs :     Misc.  Thunderstorms  Icing  Turbulence  Mountain Waves  Volcanic Ashes







- Airport Elevation : 1106 ft
- Download approach charts


LFSO - Nancy / Ochey

CURRENT METAR :
  • 150030Z AUTO 25015G26KT 9999 BKN017/// BKN022/// OVC030/// ///TCU 04/02 Q0994

EXPIRED METARs :
  • 150000Z AUTO 25014KT 230V290 9999 -RA BKN015 OVC120 03/02 Q0994
  • 142330Z AUTO 25016KT 9999 BKN015/// OVC021/// ///TCU 04/02 Q0993
  • 142300Z AUTO 24014KT 9999 -RA OVC012 04/03 Q0993 TEMPO 3000 -TSRAGS BKN010 BKN020CB BECMG 22015G25KT
  • 142230Z AUTO 23013KT 9999 -RA OVC015 04/03 Q0993 TEMPO 3000 -TSRAGS BKN010 BKN020CB BECMG 22015G25KT
  • 142200Z AUTO 22013KT 9999 BKN014/// BKN027/// BKN036/// ///TCU 04/03 Q0993 TEMPO 3000 -TSRAGS BKN010 BKN020CB BECMG 22015G25KT

TAF TAF LFSO
Valid from the 14 at 21:00 until the 15 at 21:00 UTC


142000Z 1421/1521 22015G25KT 9999 BKN015
PROB30
TEMPO 1421/1502 3000 -TSRAGS BKN010 BKN020CB
BECMG 1502/1504 22012KT
PROB40
TEMPO 1503/1510 4000 -RASN BKN007
TEMPO 1510/1518 22015G25KT 3000 -SHRASN BKN020TCU
No reported NOTAMs for that airfield.
2 SIGMETs reported for the Reims FIR (LFEE) :
 
Severe turbulence
LFEE SIGMET 9 VALID 142300/150300 LFPW
LFEE REIMS FIR/UIR SEV TURB FCST S OF LINE N4730 E00415 - N4815 E00800 FL170/280 STNR WKN=
Severe turbulence
LFEE SIGMET 10 VALID 142300/150300 LFPW
LFEE REIMS FIR/UIR SEV TURB FCST WI N4830 E00800 - N4730 E00730 - N4630 E00615 - N4630 E00515 - N4830 E00800 SFC/FL070 STNR NC=



MET'MAP, your aeronautical weather chart ! - Copyright ORBIFLY December 2007 - Disclaimer

ORBIFLY MET'MAP TEAM :

Programming & Development : Alexandra Zaïnal
Concept & Development : Baudouin d'Aumeries
Co-Development & Prog : Marc-Olivier Méhu
Technical & hardware support : Manuel Goepfert

Contact : metmap@orbifly.com




SOURCES & CREDITS :

   NOAA